createdAt,value
2022-08-05T00:00:17.008Z,54.45
2022-08-05T00:02:50.902Z,53.81
2022-08-05T00:06:02.817Z,53.30
2022-08-05T00:08:20.003Z,53.46
2022-08-05T00:10:53.532Z,53.72
2022-08-05T00:13:19.998Z,53.47
2022-08-05T00:15:54.913Z,53.46
2022-08-05T00:18:22.961Z,52.88
2022-08-05T00:20:50.303Z,54.08
2022-08-05T00:23:17.227Z,54.28
2022-08-05T00:25:57.360Z,52.84
2022-08-05T00:28:29.599Z,52.90
2022-08-05T00:30:56.441Z,53.28
2022-08-05T00:34:54.422Z,52.84
2022-08-05T00:36:18.526Z,52.70
2022-08-05T00:39:02.309Z,52.22
2022-08-05T00:41:51.408Z,52.72
2022-08-05T00:44:18.958Z,52.92
2022-08-05T00:46:47.404Z,52.53
2022-08-05T00:49:20.895Z,53.09
2022-08-05T00:51:52.013Z,53.68
2022-08-05T00:54:18.852Z,53.93
2022-08-05T00:56:51.419Z,54.30
2022-08-05T00:59:18.428Z,54.82
2022-08-05T01:01:48.544Z,55.31
2022-08-05T01:04:16.163Z,55.24
2022-08-05T01:06:48.968Z,55.40
2022-08-05T01:09:19.836Z,55.25
2022-08-05T01:11:51.727Z,55.41
2022-08-05T01:14:28.070Z,55.67
2022-08-05T01:17:29.637Z,55.33
2022-08-05T01:20:25.058Z,56.29
2022-08-05T01:23:24.579Z,56.37
2022-08-05T01:26:21.452Z,56.45
2022-08-05T01:29:05.260Z,56.88
2022-08-05T01:31:48.101Z,58.13
2022-08-05T01:34:35.855Z,58.15
2022-08-05T01:37:07.938Z,58.86
2022-08-05T01:39:47.756Z,59.00
2022-08-05T01:42:17.375Z,59.30
2022-08-05T01:44:45.674Z,60.13
2022-08-05T01:47:21.264Z,59.38
2022-08-05T01:50:00.110Z,59.73
2022-08-05T01:52:28.893Z,60.18
2022-08-05T01:55:00.477Z,60.32
2022-08-05T01:58:13.736Z,60.80
2022-08-05T02:00:18.722Z,60.86
2022-08-05T02:02:59.916Z,61.83
2022-08-05T02:05:35.987Z,61.00
2022-08-05T02:08:04.196Z,60.73
2022-08-05T02:24:31.723Z,60.03
2022-08-05T02:27:10.262Z,60.40
2022-08-05T02:29:58.615Z,60.56
2022-08-05T02:32:30.606Z,60.80
2022-08-05T02:35:13.526Z,60.83
2022-08-05T02:37:47.594Z,60.44
2022-08-05T02:40:20.531Z,60.48
2022-08-05T02:42:52.779Z,61.32
2022-08-05T02:45:21.255Z,60.75
2022-08-05T02:48:06.970Z,60.92
2022-08-05T02:50:43.868Z,61.25
2022-08-05T02:53:18.803Z,61.79
2022-08-05T02:55:53.730Z,62.32
2022-08-05T02:58:23.091Z,62.18
2022-08-05T03:00:56.203Z,62.48
2022-08-05T03:03:23.549Z,62.44
2022-08-05T03:06:54.785Z,62.22
2022-08-05T03:08:42.627Z,62.39
2022-08-05T03:11:54.694Z,62.75
2022-08-05T03:14:09.859Z,62.54
2022-08-05T03:16:40.522Z,62.59
2022-08-05T03:19:17.218Z,62.66
2022-08-05T03:21:53.606Z,62.60
2022-08-05T03:24:29.968Z,61.87
2022-08-05T03:26:59.010Z,62.49
2022-08-05T03:29:59.605Z,63.09
2022-08-05T03:32:14.388Z,63.48
2022-08-05T03:34:42.360Z,62.88
2022-08-05T03:37:18.850Z,63.65
2022-08-05T03:39:58.975Z,63.61
2022-08-05T03:42:27.200Z,63.60
2022-08-05T03:44:55.679Z,63.77
2022-08-05T03:47:24.096Z,63.88
2022-08-05T03:49:51.515Z,63.69
2022-08-05T03:52:37.066Z,64.36
2022-08-05T03:56:03.680Z,64.78
2022-08-05T03:58:10.655Z,65.01
2022-08-05T04:00:41.965Z,65.00
2022-08-05T04:03:26.650Z,64.98
2022-08-05T04:05:57.906Z,64.64
2022-08-05T04:08:30.082Z,64.46
2022-08-05T04:11:04.056Z,64.85
2022-08-05T04:13:49.949Z,65.44
2022-08-05T04:16:25.254Z,65.68
2022-08-05T04:18:58.862Z,65.03
2022-08-05T04:22:10.119Z,65.21
2022-08-05T04:24:18.711Z,65.55
2022-08-05T04:26:46.690Z,65.54
2022-08-05T04:29:13.193Z,65.02
2022-08-05T04:31:40.890Z,64.91
2022-08-05T04:34:31.756Z,65.23
2022-08-05T04:36:54.427Z,65.47
2022-08-05T04:39:21.696Z,64.69
2022-08-05T04:41:48.581Z,66.26
2022-08-05T04:44:21.440Z,66.23
2022-08-05T04:46:56.835Z,65.11
2022-08-05T04:49:39.169Z,65.65
2022-08-05T04:52:11.764Z,65.23
2022-08-05T04:54:38.203Z,65.25
2022-08-05T04:57:04.757Z,66.83
2022-08-05T04:59:39.168Z,67.39
2022-08-05T05:02:37.345Z,66.75
2022-08-05T05:05:01.736Z,66.37
2022-08-05T05:07:29.687Z,67.23
2022-08-05T05:09:59.061Z,67.31
2022-08-05T05:12:29.076Z,66.84
2022-08-05T05:14:55.548Z,65.65
2022-08-05T05:17:24.620Z,64.78
2022-08-05T05:20:09.792Z,63.20
2022-08-05T05:22:40.771Z,62.99
2022-08-05T05:25:16.796Z,61.07
2022-08-05T05:27:53.677Z,61.34
2022-08-05T05:30:31.496Z,61.03
2022-08-05T05:33:09.339Z,60.05
2022-08-05T05:35:43.618Z,59.63
2022-08-05T05:38:13.353Z,58.94
2022-08-05T05:40:48.019Z,59.54
2022-08-05T05:43:27.544Z,59.72
2022-08-05T05:46:03.305Z,58.41
2022-08-05T05:48:31.597Z,57.88
2022-08-05T05:50:58.099Z,57.61
2022-08-05T05:53:24.532Z,57.62
2022-08-05T05:56:00.762Z,59.72
2022-08-05T05:58:31.514Z,58.95
2022-08-05T06:01:12.397Z,57.86
2022-08-05T06:04:00.924Z,57.38
2022-08-05T06:06:30.802Z,56.71
2022-08-05T06:08:59.264Z,57.53
2022-08-05T06:11:25.944Z,57.52
2022-08-05T06:13:54.148Z,57.83
2022-08-05T06:16:29.590Z,57.04
2022-08-05T06:19:00.850Z,56.82
2022-08-05T06:21:36.786Z,56.71
2022-08-05T06:24:11.298Z,55.65
2022-08-05T06:26:52.121Z,55.14
2022-08-05T06:29:45.330Z,54.47
2022-08-05T06:32:25.292Z,53.51
2022-08-05T06:34:56.776Z,52.56
2022-08-05T06:37:39.462Z,51.92
2022-08-05T06:40:18.079Z,50.97
2022-08-05T06:42:52.260Z,50.99
2022-08-05T06:45:44.105Z,50.81
2022-08-05T06:48:47.060Z,51.22
2022-08-05T06:50:56.996Z,50.56
2022-08-05T06:53:28.690Z,50.08
2022-08-05T06:55:59.885Z,49.55
2022-08-05T06:58:34.697Z,49.29
2022-08-05T07:01:05.059Z,48.43
2022-08-05T07:03:33.202Z,48.94
2022-08-05T07:06:05.786Z,48.77
2022-08-05T07:08:47.822Z,49.80
2022-08-05T07:11:22.130Z,50.21
2022-08-05T07:14:20.054Z,51.20
2022-08-05T07:18:08.176Z,50.35
2022-08-05T07:22:33.032Z,51.06
2022-08-05T07:25:21.697Z,51.05
2022-08-05T07:27:58.772Z,51.08
2022-08-05T07:30:33.638Z,51.01
2022-08-05T07:33:05.162Z,50.94
2022-08-05T07:36:03.869Z,51.31
2022-08-05T07:38:33.991Z,51.75
2022-08-05T07:41:35.045Z,46.49
2022-08-05T07:43:58.967Z,45.47
2022-08-05T07:46:30.638Z,45.56
2022-08-05T07:49:02.591Z,44.86
2022-08-05T07:51:36.296Z,44.26
2022-08-05T07:54:04.798Z,43.68
2022-08-05T07:57:02.739Z,41.66
2022-08-05T07:59:18.018Z,40.79
2022-08-05T08:01:51.787Z,39.46
2022-08-05T08:04:37.598Z,40.19
2022-08-05T08:07:07.415Z,39.54
2022-08-05T08:09:34.886Z,38.20
2022-08-05T08:12:07.760Z,37.35
2022-08-05T08:14:46.779Z,36.47
2022-08-05T08:17:16.270Z,36.70
2022-08-05T08:20:21.418Z,35.44
2022-08-05T08:22:32.307Z,35.55
2022-08-05T08:25:03.309Z,35.23
2022-08-05T08:27:37.988Z,34.31
2022-08-05T08:30:18.991Z,33.81
2022-08-05T08:32:56.843Z,32.96
2022-08-05T08:35:26.696Z,32.61
2022-08-05T08:37:56.348Z,32.21
2022-08-05T08:40:23.685Z,31.84
2022-08-05T08:42:52.993Z,32.20
2022-08-05T08:45:27.182Z,32.08
2022-08-05T08:48:06.885Z,31.47
2022-08-05T08:51:03.793Z,31.34
2022-08-05T08:53:37.231Z,30.27
2022-08-05T08:56:06.160Z,29.49
2022-08-05T08:58:43.476Z,29.79
2022-08-05T09:01:15.746Z,29.68
2022-08-05T09:03:54.421Z,28.36
2022-08-05T09:06:24.235Z,29.22
2022-08-05T09:08:55.900Z,28.49
2022-08-05T09:11:51.671Z,29.30
2022-08-05T09:14:58.582Z,28.95
2022-08-05T09:16:57.921Z,28.51
2022-08-05T09:19:36.204Z,27.65
2022-08-05T09:22:23.393Z,29.24
2022-08-05T09:25:01.049Z,29.25
2022-08-05T09:28:04.601Z,28.75
2022-08-05T09:30:23.490Z,30.59
2022-08-05T09:32:51.491Z,30.63
2022-08-05T09:35:26.747Z,29.72
2022-08-05T09:38:16.885Z,28.58
2022-08-05T09:40:52.678Z,28.11
2022-08-05T09:43:41.158Z,28.27
2022-08-05T09:46:28.070Z,27.96
2022-08-05T09:49:08.032Z,26.63
2022-08-05T09:51:42.235Z,26.63
2022-08-05T09:54:09.510Z,25.68
2022-08-05T09:56:38.500Z,26.33
2022-08-05T09:59:17.025Z,26.98
2022-08-05T10:01:46.482Z,27.15
2022-08-05T10:04:15.946Z,27.45
2022-08-05T10:06:59.086Z,27.82
2022-08-05T10:09:27.987Z,28.09
2022-08-05T10:11:55.008Z,27.67
2022-08-05T10:14:32.256Z,27.42
2022-08-05T10:17:39.816Z,26.86
2022-08-05T10:20:09.833Z,26.08
2022-08-05T10:22:38.076Z,26.47
2022-08-05T10:25:10.270Z,26.28
2022-08-05T10:28:13.662Z,26.17
2022-08-05T10:31:20.651Z,25.37
2022-08-05T10:33:15.200Z,25.76
2022-08-05T10:35:44.072Z,26.29
2022-08-05T10:38:13.272Z,25.71
2022-08-05T10:40:43.461Z,25.35
2022-08-05T10:43:35.953Z,25.08
2022-08-05T10:46:06.802Z,24.89
2022-08-05T10:48:57.070Z,25.49
2022-08-05T10:51:28.391Z,25.17
2022-08-05T10:54:05.808Z,25.36
2022-08-05T10:56:53.303Z,25.76
2022-08-05T11:00:03.770Z,25.44
2022-08-05T11:02:37.597Z,25.10
2022-08-05T11:05:08.599Z,24.99
2022-08-05T11:08:02.732Z,25.50
2022-08-05T11:10:37.066Z,27.73
2022-08-05T11:13:05.521Z,26.28
2022-08-05T11:15:59.089Z,26.06
2022-08-05T11:18:33.954Z,24.82
2022-08-05T11:21:02.789Z,25.29
2022-08-05T11:24:04.590Z,26.51
2022-08-05T11:26:40.863Z,27.49
2022-08-05T11:29:40.120Z,28.92
2022-08-05T11:32:27.210Z,30.05
2022-08-05T11:34:55.282Z,31.96
2022-08-05T11:38:30.466Z,32.52
2022-08-05T11:41:35.621Z,32.16
2022-08-05T11:44:06.252Z,32.30
2022-08-05T11:47:09.597Z,33.98
2022-08-05T11:49:33.761Z,33.70
2022-08-05T11:52:01.486Z,34.16
2022-08-05T11:54:37.995Z,34.93
2022-08-05T11:57:08.497Z,34.80
2022-08-05T11:59:50.983Z,35.71
2022-08-05T12:02:30.272Z,36.01
2022-08-05T12:05:00.325Z,36.57
2022-08-05T12:08:08.420Z,35.69
2022-08-05T12:10:22.806Z,35.77
2022-08-05T12:12:59.702Z,35.67
2022-08-05T12:15:37.833Z,35.77
2022-08-05T12:18:11.962Z,35.02
2022-08-05T12:20:39.343Z,34.95
2022-08-05T12:23:09.586Z,35.24
2022-08-05T12:25:51.961Z,35.52
2022-08-05T12:28:37.830Z,34.56
2022-08-05T12:31:05.367Z,33.75
2022-08-05T12:33:36.537Z,34.67
2022-08-05T12:36:07.915Z,33.51
2022-08-05T12:38:37.968Z,34.58
2022-08-05T12:41:13.318Z,35.02
2022-08-05T12:43:58.688Z,35.30
2022-08-05T12:46:29.758Z,35.43
2022-08-05T12:49:12.883Z,34.95
2022-08-05T12:52:12.602Z,35.11
2022-08-05T12:54:50.996Z,35.81
2022-08-05T12:57:19.535Z,35.31
2022-08-05T13:02:03.683Z,35.45
2022-08-05T13:02:39.837Z,35.36
2022-08-05T13:05:07.155Z,34.93
2022-08-05T13:07:59.287Z,35.20
2022-08-05T13:10:20.612Z,35.99
2022-08-05T13:12:51.256Z,36.46
2022-08-05T13:15:41.810Z,36.23
2022-08-05T13:18:20.222Z,36.32
2022-08-05T13:20:49.130Z,36.53
2022-08-05T13:23:18.289Z,35.68
2022-08-05T13:25:52.664Z,34.93
2022-08-05T13:28:26.892Z,34.27
2022-08-05T13:30:53.742Z,34.15
2022-08-05T13:34:21.306Z,34.64
2022-08-05T13:36:09.250Z,35.59
2022-08-05T13:38:38.514Z,34.55
2022-08-05T13:41:09.362Z,35.41
2022-08-05T13:43:45.446Z,34.69
2022-08-05T13:47:01.726Z,34.83
2022-08-05T13:49:12.628Z,34.93
2022-08-05T13:51:46.614Z,35.48
2022-08-05T13:54:15.106Z,34.71
2022-08-05T13:56:45.415Z,35.91
2022-08-05T13:59:24.032Z,36.41
2022-08-05T14:01:57.874Z,35.89
2022-08-05T14:04:53.934Z,36.13
2022-08-05T14:07:55.781Z,35.49
2022-08-05T14:22:08.983Z,35.42
2022-08-05T14:24:19.403Z,35.37
2022-08-05T14:27:02.010Z,35.04
2022-08-05T14:29:32.560Z,34.54
2022-08-05T14:32:12.470Z,34.94
2022-08-05T14:34:42.619Z,33.85
2022-08-05T14:37:09.128Z,33.40
2022-08-05T14:39:50.272Z,33.49
2022-08-05T14:42:29.346Z,33.37
2022-08-05T14:44:56.699Z,33.68
2022-08-05T14:48:02.613Z,34.17
2022-08-05T14:50:14.247Z,34.52
2022-08-05T14:52:52.943Z,34.17
2022-08-05T14:55:20.305Z,33.89
2022-08-05T14:57:54.803Z,33.41
2022-08-05T15:00:28.182Z,33.30
2022-08-05T15:02:56.471Z,32.96
2022-08-05T15:05:29.536Z,32.20
2022-08-05T15:08:06.214Z,33.17
2022-08-05T15:10:41.407Z,33.69
2022-08-05T15:13:10.082Z,33.49
2022-08-05T15:15:54.522Z,33.49
2022-08-05T15:18:23.308Z,33.67
2022-08-05T15:20:49.978Z,34.14
2022-08-05T15:23:17.625Z,33.73
2022-08-05T15:25:53.364Z,33.87
2022-08-05T15:28:27.221Z,33.90
2022-08-05T15:30:54.916Z,33.45
2022-08-05T15:34:04.045Z,33.29
2022-08-05T15:36:16.884Z,33.40
2022-08-05T15:38:50.698Z,34.05
2022-08-05T15:41:57.670Z,34.40
2022-08-05T15:44:24.196Z,34.21
2022-08-05T15:46:52.593Z,34.21
2022-08-05T15:49:27.330Z,34.08
2022-08-05T15:52:16.422Z,33.96
2022-08-05T15:54:43.623Z,34.23
2022-08-05T15:57:11.012Z,34.16
2022-08-05T15:59:39.480Z,35.02
2022-08-05T16:02:09.438Z,34.37
2022-08-05T16:04:41.078Z,35.74
2022-08-05T16:07:10.559Z,35.20
2022-08-05T16:09:37.462Z,35.30
2022-08-05T16:12:09.123Z,35.07
2022-08-05T16:14:35.992Z,36.10
2022-08-05T16:17:03.335Z,37.55
2022-08-05T16:20:05.607Z,37.64
2022-08-05T16:22:17.061Z,37.95
2022-08-05T16:24:52.202Z,39.04
2022-08-05T16:27:18.953Z,39.76
2022-08-05T16:29:50.821Z,40.89
2022-08-05T16:32:18.351Z,42.84
2022-08-05T16:34:54.943Z,43.07
2022-08-05T16:38:02.383Z,43.46
2022-08-05T16:40:20.212Z,43.87
2022-08-05T16:42:55.020Z,43.50
2022-08-05T16:46:04.916Z,43.68
2022-08-05T16:48:08.332Z,44.14
2022-08-05T16:50:37.763Z,44.22
2022-08-05T16:53:12.322Z,44.41
2022-08-05T16:55:48.797Z,45.06
2022-08-05T16:58:15.364Z,44.86
2022-08-05T17:00:47.031Z,45.10
2022-08-05T17:03:20.464Z,46.10
2022-08-05T17:05:54.008Z,46.72
2022-08-05T17:08:35.986Z,46.77
2022-08-05T17:11:16.872Z,47.22
2022-08-05T17:13:44.660Z,47.33
2022-08-05T17:16:32.883Z,47.47
2022-08-05T17:18:58.303Z,48.35
2022-08-05T17:21:24.725Z,48.25
2022-08-05T17:24:05.450Z,48.13
2022-08-05T17:26:39.019Z,48.30
2022-08-05T17:29:10.152Z,48.53
2022-08-05T17:31:56.976Z,48.67
2022-08-05T17:34:29.812Z,49.82
2022-08-05T17:36:59.252Z,49.24
2022-08-05T17:39:33.955Z,49.90
2022-08-05T17:42:17.418Z,49.89
2022-08-05T17:44:50.375Z,50.64
2022-08-05T17:47:22.837Z,50.63
2022-08-05T17:49:59.640Z,49.83
2022-08-05T17:52:27.707Z,51.00
2022-08-05T17:54:54.794Z,50.70
2022-08-05T17:57:21.919Z,50.98
2022-08-05T18:00:05.040Z,51.70
2022-08-05T18:02:34.079Z,51.80
2022-08-05T18:05:03.021Z,51.88
2022-08-05T18:07:41.528Z,52.46
2022-08-05T18:10:11.025Z,52.35
2022-08-05T18:12:38.685Z,52.42
2022-08-05T18:15:06.271Z,52.30
2022-08-05T18:18:00.988Z,52.59
2022-08-05T18:20:29.638Z,52.76
2022-08-05T18:23:00.699Z,52.62
2022-08-05T18:25:36.921Z,52.68
2022-08-05T18:28:06.365Z,53.18
2022-08-05T18:30:36.712Z,52.81
2022-08-05T18:33:07.329Z,53.31
2022-08-05T18:35:59.639Z,53.67
2022-08-05T18:38:26.327Z,53.43
2022-08-05T18:41:56.901Z,53.33
2022-08-05T18:43:43.101Z,52.84
2022-08-05T18:46:19.889Z,52.68
2022-08-05T18:48:52.009Z,52.51
2022-08-05T18:52:06.151Z,53.43
2022-08-05T18:54:25.538Z,53.22
2022-08-05T18:56:52.233Z,52.80
2022-08-05T18:59:43.238Z,53.29
2022-08-05T19:02:27.093Z,53.41
2022-08-05T19:05:02.354Z,53.85
2022-08-05T19:07:45.411Z,54.96
2022-08-05T19:10:14.369Z,55.33
2022-08-05T19:12:41.292Z,55.48
2022-08-05T19:15:10.597Z,55.97
2022-08-05T19:18:08.366Z,56.62
2022-08-05T19:20:41.725Z,57.40
2022-08-05T19:24:06.251Z,58.67
2022-08-05T19:26:02.634Z,58.34
2022-08-05T19:28:30.820Z,59.24
2022-08-05T19:30:57.533Z,59.27
2022-08-05T19:33:35.858Z,60.84
2022-08-05T19:36:06.988Z,61.53
2022-08-05T19:38:35.508Z,62.26
2022-08-05T19:41:02.275Z,62.95
2022-08-05T19:44:05.830Z,64.34
2022-08-05T19:46:30.221Z,65.06
2022-08-05T19:49:01.300Z,65.63
2022-08-05T19:52:05.490Z,65.92
2022-08-05T19:54:26.987Z,66.39
2022-08-05T19:56:57.943Z,66.48
2022-08-05T19:59:55.837Z,68.63
2022-08-05T20:02:12.566Z,69.17
2022-08-05T20:04:42.985Z,70.86
2022-08-05T20:07:13.442Z,72.46
2022-08-05T20:09:53.786Z,73.44
2022-08-05T20:12:22.495Z,74.10
2022-08-05T20:14:52.225Z,75.42
2022-08-05T20:17:19.946Z,77.38
2022-08-05T20:19:50.935Z,78.90
2022-08-05T20:22:24.709Z,79.50
2022-08-05T20:24:53.826Z,79.44
2022-08-05T20:27:21.014Z,78.99
2022-08-05T20:29:58.298Z,79.57
2022-08-05T20:32:26.144Z,82.15
2022-08-05T20:34:52.787Z,82.46
2022-08-05T20:38:04.937Z,82.97
2022-08-05T20:40:06.859Z,83.07
2022-08-05T20:42:33.379Z,83.64
2022-08-05T20:45:02.003Z,84.73
2022-08-05T20:47:31.978Z,84.48
2022-08-05T20:49:59.524Z,84.85
2022-08-05T20:52:28.350Z,84.75
2022-08-05T20:55:54.994Z,85.55
2022-08-05T20:57:44.334Z,88.09
2022-08-05T21:00:41.432Z,88.35
2022-08-05T21:03:04.604Z,89.53
2022-08-05T21:05:47.901Z,90.30
2022-08-05T21:08:26.708Z,90.12
2022-08-05T21:11:00.044Z,91.21
2022-08-05T21:13:48.353Z,90.42
2022-08-05T21:16:13.783Z,89.53
2022-08-05T21:18:43.010Z,89.93
2022-08-05T21:21:12.131Z,90.10
2022-08-05T21:23:39.004Z,89.03
2022-08-05T21:26:08.145Z,89.21
2022-08-05T21:28:39.982Z,90.65
2022-08-05T21:31:14.255Z,91.66
2022-08-05T21:33:43.124Z,90.91
2022-08-05T21:36:14.457Z,91.29
2022-08-05T21:38:54.720Z,90.70
2022-08-05T21:41:21.264Z,90.93
2022-08-05T21:44:01.672Z,90.64
2022-08-05T21:46:30.161Z,91.13
2022-08-05T21:48:57.134Z,90.39
2022-08-05T21:52:22.028Z,91.76
2022-08-05T21:54:12.963Z,92.53
2022-08-05T21:56:44.484Z,91.72
2022-08-05T21:59:24.433Z,91.41
2022-08-05T22:01:54.596Z,92.92
2022-08-05T22:04:25.511Z,92.07
2022-08-05T22:06:52.496Z,91.82
2022-08-05T22:09:21.119Z,91.38
2022-08-05T22:11:48.353Z,90.98
2022-08-05T22:14:33.536Z,90.25
2022-08-05T22:17:03.818Z,90.60
2022-08-05T22:20:00.424Z,91.12
2022-08-05T22:22:27.264Z,90.38
2022-08-05T22:25:31.231Z,86.86
2022-08-05T22:28:12.090Z,83.99
2022-08-05T22:30:55.542Z,83.08
2022-08-05T22:33:56.615Z,82.84
2022-08-05T22:36:11.476Z,84.04
2022-08-05T22:38:42.553Z,85.45
2022-08-05T22:41:10.188Z,85.74
2022-08-05T22:43:38.344Z,85.99
2022-08-05T22:46:13.052Z,86.00
2022-08-05T22:48:41.136Z,85.04
2022-08-05T22:51:08.415Z,85.66
2022-08-05T22:53:42.616Z,85.18
2022-08-05T22:56:16.534Z,84.72
2022-08-05T22:58:43.620Z,85.94
2022-08-05T23:01:10.436Z,86.02
2022-08-05T23:03:58.021Z,85.87
2022-08-05T23:06:26.202Z,85.18
2022-08-05T23:08:52.968Z,84.92
2022-08-05T23:11:19.463Z,85.33
2022-08-05T23:13:45.928Z,85.46
2022-08-05T23:16:26.119Z,85.65
2022-08-05T23:19:00.104Z,85.06
2022-08-05T23:21:42.476Z,86.21
2022-08-05T23:24:11.296Z,85.39
2022-08-05T23:26:38.158Z,85.99
2022-08-05T23:29:05.219Z,88.43
2022-08-05T23:31:31.824Z,87.34
2022-08-05T23:34:05.217Z,86.50
2022-08-05T23:36:38.713Z,86.85
2022-08-05T23:39:08.189Z,87.30
2022-08-05T23:41:37.322Z,87.94
2022-08-05T23:44:08.815Z,87.42
2022-08-05T23:46:37.408Z,86.48
2022-08-05T23:49:16.422Z,85.83
2022-08-05T23:52:03.070Z,84.67
2022-08-05T23:54:38.461Z,84.49
2022-08-05T23:57:06.788Z,84.99
